Data for 04/15/2014

Time Sea-Level Adjusted Pressure Absolute Pressure Temperature Relative Humidity Dew Point   
(mb) (inHg) (mb) (inHg) (C) (F) (%) (C) (F)
00:05 1015 29.97 844 24.92 7.7 45.8 22 -12.8 9
00:10 1015 29.97 844 24.92 7.7 45.8 22 -12.6 9.4
00:15 1015 29.97 844 24.92 7.6 45.8 23 -12.4 9.7
00:20 1015 29.97 844 24.92 7.6 45.6 23 -12.2 10
00:25 1015 29.97 844 24.92 7.5 45.5 24 -11.9 10.6
00:30 1015 29.97 844 24.92 7.4 45.2 24 -12 10.3
00:35 1015 29.97 844 24.92 7.3 45.2 23 -12.3 9.8
00:40 1015 29.97 844 24.92 7.4 45.3 23 -12.5 9.5
00:45 1015 29.97 844 24.92 7.4 45.4 23 -12.3 9.8
00:50 1015 29.97 844 24.92 7.4 45.3 24 -12.2 10.1
00:55 1015 29.97 844 24.92 7.3 45.1 24 -12.1 10.2
01:00 1015 29.97 844 24.92 7.3 45.1 24 -12 10.5
01:05 1015 29.97 844 24.92 7.2 44.9 24 -12.1 10.2
01:10 1015 29.97 844 24.92 7.2 45 24 -12.2 10.1
01:15 1015 29.97 844 24.92 7.2 44.9 25 -11.7 10.9
01:20 1014 29.94 844 24.92 7.1 44.7 24 -12 10.4
01:25 1014 29.94 844 24.92 7.1 44.8 24 -12.3 9.9
01:30 1014 29.94 843 24.89 7.1 44.8 26 -11.3 11.7
01:35 1014 29.94 843 24.89 6.6 43.8 27 -11.4 11.5
01:40 1014 29.94 843 24.89 6.3 43.4 27 -11.4 11.4
01:45 1014 29.94 843 24.89 6.4 43.4 27 -11.5 11.3
01:50 1014 29.94 843 24.89 6.3 43.3 27 -11.2 11.8
01:55 1014 29.94 843 24.89 6.2 43.1 28 -11.1 12.1
02:00 1014 29.94 843 24.89 6.1 43 29 -10.6 12.9
02:05 1014 29.94 843 24.89 6.2 43.2 26 -11.7 10.9
02:10 1014 29.94 843 24.89 6.6 43.8 26 -11.7 11
02:15 1014 29.94 843 24.89 6.6 43.9 27 -11 12.2
02:20 1014 29.94 843 24.89 6.5 43.7 25 -12.1 10.2
02:25 1014 29.94 843 24.89 6.7 44.1 26 -11.6 11.2
02:30 1014 29.94 843 24.89 6.9 44.3 24 -12.2 10
02:35 1014 29.94 843 24.89 7.2 44.9 24 -11.9 10.6
02:40 1013 29.91 843 24.89 7.3 45.1 24 -11.9 10.6
02:45 1013 29.91 843 24.89 7.3 45.2 24 -12 10.5
02:50 1013 29.91 843 24.89 7.5 45.5 23 -12.6 9.4
02:55 1013 29.91 842 24.86 8 46.3 22 -12.8 9
03:00 1013 29.91 842 24.86 8.2 46.7 22 -12.4 9.7
03:05 1013 29.91 842 24.86 8.1 46.5 22 -12.3 9.9
03:10 1013 29.91 842 24.86 8.1 46.5 22 -12.7 9.2
03:15 1013 29.91 843 24.89 8.2 46.8 22 -12.2 10
03:20 1013 29.91 843 24.89 8.2 46.7 22 -12.3 9.8
03:25 1014 29.94 843 24.89 8.2 46.8 22 -12.1 10.2
03:30 1014 29.94 843 24.89 8.5 47.3 24 -10.8 12.6
03:35 1014 29.94 843 24.89 9 48.1 22 -11.8 10.7
03:40 1014 29.94 843 24.89 8.7 47.6 24 -10.9 12.3
03:45 1013 29.91 843 24.89 8.9 48.1 24 -10.8 12.5
03:50 1013 29.91 843 24.89 8.9 48 22 -11.6 11.1
03:55 1013 29.91 843 24.89 9 48.3 24 -10.4 13.3
04:00 1013 29.91 843 24.89 9.3 48.7 26 -9.4 15.2
04:05 1013 29.91 842 24.86 9.7 49.5 25 -9.4 15.1
04:10 1013 29.91 842 24.86 9.9 49.8 27 -8.1 17.4
04:15 1013 29.91 842 24.86 10.1 50.1 26 -8.6 16.6
04:20 1013 29.91 842 24.86 10.1 50.1 27 -7.9 17.7
04:25 1013 29.91 842 24.86 9.8 49.7 28 -7.9 17.9
04:30 1013 29.91 842 24.86 9.5 49.1 26 -9.1 15.7
04:35 1012 29.88 842 24.86 9.2 48.5 23 -10.7 12.7
04:40 1012 29.88 842 24.86 8.6 47.5 24 -10.9 12.3
04:45 1012 29.88 842 24.86 8.5 47.2 23 -11.8 10.8
04:50 1012 29.88 841 24.83 8.3 46.9 26 -10.3 13.5
04:55 1012 29.88 841 24.83 7.9 46.2 25 -10.8 12.5
05:00 1012 29.88 841 24.83 8.5 47.2 20 -13.5 7.8
05:05 1012 29.88 841 24.83 9.2 48.5 20 -12.7 9.2
05:10 1012 29.88 841 24.83 9.2 48.5 19 -13.4 7.9
05:15 1012 29.88 841 24.83 9.2 48.6 20 -12.6 9.4
05:20 1012 29.88 841 24.83 8.9 48 21 -12.3 9.9
05:25 1012 29.88 841 24.83 8.7 47.6 22 -12.1 10.2
05:30 1012 29.88 841 24.83 8.4 47.2 23 -11.7 11
05:35 1012 29.88 841 24.83 8.1 46.6 23 -11.9 10.6
05:40 1012 29.88 841 24.83 8.2 46.7 23 -11.9 10.5
05:45 1012 29.88 841 24.83 8.1 46.6 24 -11.3 11.6
05:50 1012 29.88 841 24.83 8 46.3 23 -11.8 10.8
05:55 1012 29.88 841 24.83 8.3 46.9 23 -11.8 10.8
06:00 1012 29.88 841 24.83 8.4 47.2 22 -12 10.4
06:05 1012 29.88 841 24.83 8.8 47.9 22 -11.6 11.1
06:10 1012 29.88 841 24.83 8.8 47.9 23 -11.4 11.5
06:15 1012 29.88 841 24.83 8.9 48.1 23 -11.1 12
06:20 1012 29.88 841 24.83 9 48.2 22 -11.4 11.4
06:25 1011 29.85 841 24.83 9 48.3 23 -11 12.2
06:30 1011 29.85 841 24.83 8.9 48 24 -10.7 12.7
06:35 1011 29.85 841 24.83 8.8 47.8 24 -10.6 12.9
06:40 1011 29.85 840 24.81 8.8 47.8 24 -10.5 13.1
06:45 1011 29.85 840 24.81 8.9 48 25 -10 14
06:50 1011 29.85 840 24.81 9 48.1 25 -10.2 13.7
06:55 1011 29.85 840 24.81 9.3 48.7 25 -10 14
07:00 1011 29.85 840 24.81 9.5 49.1 25 -9.4 15.1
07:05 1011 29.85 840 24.81 9.5 49.1 26 -9.1 15.6
07:10 1011 29.85 840 24.81 9.6 49.3 26 -9 15.7
07:15 1011 29.85 840 24.81 9.8 49.6 25 -9.6 14.8
07:20 1011 29.85 840 24.81 10.2 50.3 24 -9.6 14.7
07:25 1011 29.85 840 24.81 9.9 49.8 25 -9.3 15.2
07:30 1011 29.85 840 24.81 9.9 49.7 25 -9 15.8
07:35 1011 29.85 840 24.81 10.1 50.1 25 -8.9 16.1
07:40 1011 29.85 840 24.81 10.7 51.3 25 -8.6 16.6
07:45 1011 29.85 840 24.81 10.7 51.2 26 -7.9 17.9
07:50 1010 29.83 840 24.81 10.2 50.4 26 -8.4 16.9
07:55 1010 29.83 840 24.81 10.1 50.1 26 -8.3 17
08:00 1010 29.83 840 24.81 10 50 26 -8.4 16.8
08:05 1010 29.83 839 24.78 9.9 49.7 27 -8.4 16.8
08:10 1010 29.83 839 24.78 9.8 49.6 27 -8.5 16.7
08:15 1010 29.83 839 24.78 9.7 49.5 27 -8.5 16.7
08:20 1010 29.83 839 24.78 9.6 49.3 27 -8.6 16.6
08:25 1010 29.83 839 24.78 9.5 49.1 27 -8.5 16.7
08:30 1010 29.83 839 24.78 9.6 49.2 27 -8.6 16.5
08:35 1010 29.83 839 24.78 9.5 49.2 26 -9.1 15.5
08:40 1010 29.83 839 24.78 9.5 49 26 -9.1 15.6
08:45 1010 29.83 839 24.78 9.3 48.7 26 -9.3 15.3
08:50 1010 29.83 839 24.78 9.1 48.3 27 -9 15.8
08:55 1010 29.83 839 24.78 9 48.1 28 -8.8 16.2
09:00 1010 29.83 839 24.78 8.8 47.9 28 -8.7 16.3
09:05 1010 29.83 839 24.78 8.7 47.6 28 -9 15.7
09:10 1010 29.83 839 24.78 8.6 47.4 27 -9.4 15
09:15 1010 29.83 839 24.78 8.5 47.3 27 -9.4 15.1
09:20 1010 29.83 839 24.78 8.4 47.1 27 -9.3 15.2
09:25 1010 29.83 839 24.78 8.4 47.2 27 -9.6 14.7
09:30 1010 29.83 839 24.78 8.4 47.2 27 -9.5 14.8
09:35 1010 29.83 839 24.78 8.5 47.2 27 -9.3 15.2
09:40 1010 29.83 839 24.78 8.5 47.2 28 -9.2 15.4
09:45 1010 29.83 839 24.78 8.6 47.6 28 -9 15.8
09:50 1010 29.83 839 24.78 8.7 47.6 27 -9.2 15.4
09:55 1010 29.83 839 24.78 8.6 47.5 27 -9.2 15.4
10:00 1010 29.83 839 24.78 8.7 47.6 27 -9.3 15.2
10:05 1010 29.83 839 24.78 8.6 47.5 27 -9.3 15.3
10:10 1010 29.83 839 24.78 8.8 47.8 27 -9.2 15.4
10:15 1010 29.83 839 24.78 9 48.1 27 -9.1 15.7
10:20 1010 29.83 839 24.78 9.1 48.3 27 -8.8 16.2
10:25 1010 29.83 839 24.78 9.2 48.6 28 -8.5 16.7
10:30 1010 29.83 839 24.78 9.4 48.9 29 -8 17.7
10:35 1010 29.83 839 24.78 9.9 49.8 27 -8.4 16.9
10:40 1010 29.83 839 24.78 9.9 49.9 28 -7.6 18.4
10:45 1010 29.83 839 24.78 10.2 50.4 28 -7.6 18.3
10:50 1010 29.83 839 24.78 10.2 50.4 26 -8.3 17
10:55 1010 29.83 839 24.78 9.6 49.2 27 -8.4 16.9
11:00 1010 29.83 839 24.78 9.3 48.8 28 -8.4 16.9
11:05 1009 29.8 839 24.78 9.2 48.6 29 -8 17.5
11:10 1009 29.8 838 24.75 9.3 48.8 29 -7.8 18
11:15 1009 29.8 838 24.75 9.4 48.9 30 -7.4 18.6
11:20 1009 29.8 838 24.75 9.4 48.9 30 -7.3 18.9
11:25 1009 29.8 838 24.75 9.6 49.2 29 -7.4 18.6
11:30 1009 29.8 838 24.75 9.6 49.2 30 -7.2 19
11:35 1009 29.8 838 24.75 9.7 49.5 30 -7.1 19.1
11:40 1009 29.8 838 24.75 9.9 49.7 30 -7.1 19.2
11:45 1009 29.8 838 24.75 9.8 49.7 30 -6.9 19.5
11:50 1009 29.8 838 24.75 9.8 49.7 30 -6.8 19.7
11:55 1009 29.8 838 24.75 9.7 49.4 30 -6.9 19.6
12:00 1009 29.8 838 24.75 9.5 49.2 31 -6.7 20
12:05 1008 29.77 838 24.75 9.6 49.2 32 -6.5 20.4
12:10 1008 29.77 838 24.75 9.6 49.4 31 -6.7 19.9
12:15 1008 29.77 837 24.72 9.8 49.6 30 -6.9 19.6
12:20 1008 29.77 837 24.72 9.9 49.8 31 -6.6 20.2
12:25 1008 29.77 837 24.72 9.9 49.7 32 -6.1 20.9
12:30 1008 29.77 837 24.72 9.7 49.5 32 -6.1 21
12:35 1008 29.77 837 24.72 9.6 49.2 33 -6.1 21.1
12:40 1008 29.77 837 24.72 9.5 49 33 -6.1 21
12:45 1008 29.77 837 24.72 9.3 48.8 33 -6.2 20.8
12:50 1008 29.77 838 24.75 9.2 48.5 37 -4.7 23.5
12:55 1009 29.8 838 24.75 8.7 47.6 45 -2.5 27.5
13:00 1009 29.8 838 24.75 7.2 44.9 61 0.1 32.2
13:05 1009 29.8 838 24.75 5.8 42.4 68 0.4 32.8
13:10 1009 29.8 839 24.78 5.5 41.8 67 -0.2 31.6
13:15 1010 29.83 839 24.78 5.3 41.5 70 0.2 32.3
13:20 1010 29.83 839 24.78 4.8 40.6 74 0.5 33
13:25 1010 29.83 839 24.78 4.4 39.9 79 1.1 34
13:30 1010 29.83 839 24.78 3.8 38.9 83 1.2 34.2
13:35 1010 29.83 839 24.78 3.6 38.6 84 1.2 34.1
13:40 1010 29.83 839 24.78 3.4 38.1 85 1.2 34.1
13:45 1010 29.83 839 24.78 3.1 37.5 87 1.1 34
13:50 1010 29.83 839 24.78 2.6 36.7 88 0.8 33.5
13:55 1010 29.83 839 24.78 2.2 36 89 0.6 33
14:00 1010 29.83 839 24.78 1.6 34.9 91 0.4 32.6
14:05 1010 29.83 839 24.78 1.2 34.2 92 0.1 32.2
14:10 1010 29.83 840 24.81 1.2 34.1 93 0.1 32.2
14:15 1010 29.83 840 24.81 1.1 34 93 0.1 32.2
14:20 1010 29.83 840 24.81 1.2 34.2 93 0.2 32.4
14:25 1010 29.83 840 24.81 1.4 34.5 93 0.3 32.6
14:30 1011 29.85 840 24.81 1.6 34.9 92 0.5 32.8
14:35 1011 29.85 840 24.81 1.7 35.1 91 0.4 32.8
14:40 1011 29.85 840 24.81 1.8 35.3 90 0.4 32.6
14:45 1011 29.85 840 24.81 1.4 34.5 92 0.2 32.4
14:50 1010 29.83 840 24.81 1.1 34 93 0.1 32.1
14:55 1010 29.83 840 24.81 1.2 34.1 93 0.1 32.2
15:00 1010 29.83 840 24.81 1.5 34.6 92 0.3 32.5
15:05 1010 29.83 840 24.81 1.6 34.9 91 0.3 32.5
15:10 1011 29.85 840 24.81 1.7 35.1 91 0.4 32.7
15:15 1011 29.85 840 24.81 1.7 35 90 0.2 32.3
15:20 1011 29.85 840 24.81 1.7 35.1 90 0.2 32.3
15:25 1010 29.83 840 24.81 1.9 35.4 88 0.1 32.2
15:30 1010 29.83 840 24.81 2.2 36 87 0.3 32.5
15:35 1010 29.83 840 24.81 2.4 36.4 87 0.5 32.8
15:40 1010 29.83 840 24.81 2.6 36.6 85 0.3 32.5
15:45 1010 29.83 840 24.81 2.7 36.8 85 0.3 32.6
15:50 1010 29.83 840 24.81 2.9 37.3 85 0.6 33.1
15:55 1011 29.85 840 24.81 2.9 37.3 82 0.1 32.2
16:00 1011 29.85 840 24.81 3.2 37.7 79 -0 31.9
16:05 1011 29.85 840 24.81 3.5 38.3 78 -0 32
16:10 1011 29.85 840 24.81 4 39.2 80 0.9 33.6
16:15 1011 29.85 840 24.81 4.1 39.4 79 0.8 33.4
16:20 1011 29.85 840 24.81 3.7 38.7 83 1.1 34.1
16:25 1011 29.85 840 24.81 3.6 38.5 82 0.8 33.5
16:30 1010 29.83 840 24.81 3.7 38.6 82 0.9 33.6
16:35 1010 29.83 840 24.81 3.9 39 80 0.7 33.3
16:40 1010 29.83 840 24.81 3.9 39.1 80 0.7 33.3
16:45 1011 29.85 840 24.81 4 39.1 80 0.9 33.6
16:50 1011 29.85 840 24.81 3.9 38.9 83 1.2 34.1
16:55 1011 29.85 840 24.81 3.7 38.6 82 0.8 33.4
17:00 1011 29.85 840 24.81 3.6 38.4 81 0.6 33.1
17:05 1011 29.85 840 24.81 3.6 38.4 79 0.2 32.3
17:10 1011 29.85 840 24.81 3.7 38.6 74 -0.5 31.1
17:15 1011 29.85 840 24.81 3.7 38.6 76 -0.3 31.5
17:20 1011 29.85 840 24.81 3.6 38.4 73 -0.9 30.4
17:25 1011 29.85 840 24.81 3 37.5 74 -1.2 29.8
17:30 1011 29.85 841 24.83 2.5 36.6 77 -1.1 30
17:35 1011 29.85 841 24.83 2.3 36.2 78 -1.2 29.9
17:40 1011 29.85 841 24.83 2.1 35.9 81 -0.8 30.5
17:45 1011 29.85 840 24.81 1.9 35.5 82 -0.8 30.5
17:50 1011 29.85 840 24.81 1.8 35.3 82 -0.8 30.5
17:55 1011 29.85 841 24.83 2 35.5 77 -1.6 29
18:00 1011 29.85 841 24.83 2.5 36.4 71 -2.3 27.8
18:05 1011 29.85 841 24.83 3.2 37.7 60 -3.7 25.3
18:10 1011 29.85 841 24.83 3.5 38.3 63 -2.9 26.9
18:15 1012 29.88 841 24.83 3.4 38.2 63 -3 26.6
18:20 1012 29.88 841 24.83 3.6 38.4 61 -3.3 26.1
18:25 1012 29.88 841 24.83 3.6 38.5 62 -3.1 26.5
18:30 1012 29.88 841 24.83 3.5 38.3 63 -3 26.6
18:35 1012 29.88 841 24.83 3.3 38 66 -2.4 27.6
18:40 1012 29.88 841 24.83 2.7 36.9 70 -2.3 27.9
18:45 1012 29.88 841 24.83 2.6 36.7 64 -3.4 25.8
18:50 1012 29.88 841 24.83 2.8 37.1 68 -2.6 27.4
18:55 1012 29.88 841 24.83 2.6 36.7 69 -2.6 27.4
19:00 1012 29.88 841 24.83 2.5 36.5 71 -2.3 27.9
19:05 1012 29.88 841 24.83 2.4 36.3 72 -2.2 28.1
19:10 1012 29.88 841 24.83 2.4 36.3 72 -2.2 28.1
19:15 1012 29.88 841 24.83 2.5 36.6 70 -2.3 27.8
19:20 1012 29.88 841 24.83 2.8 37 68 -2.6 27.4
19:25 1012 29.88 841 24.83 3 37.4 67 -2.4 27.6
19:30 1012 29.88 842 24.86 3 37.5 68 -2.4 27.8
19:35 1013 29.91 842 24.86 3.1 37.6 66 -2.6 27.3
19:40 1013 29.91 842 24.86 3.1 37.7 67 -2.3 27.8
19:45 1013 29.91 842 24.86 3.1 37.5 68 -2.3 27.8
19:50 1013 29.91 842 24.86 2.8 37.1 71 -2 28.4
19:55 1013 29.91 842 24.86 2.7 36.8 72 -1.8 28.7
20:00 1013 29.91 842 24.86 2.5 36.5 73 -1.8 28.7
20:05 1013 29.91 842 24.86 2.5 36.4 72 -2.2 28.1
20:10 1013 29.91 843 24.89 2.5 36.5 71 -2.2 28.1
20:15 1013 29.91 843 24.89 2.6 36.6 70 -2.4 27.7
20:20 1013 29.91 843 24.89 2.7 36.8 68 -2.6 27.3
20:25 1014 29.94 843 24.89 2.8 37 64 -3.3 26.1
20:30 1014 29.94 843 24.89 3 37.5 57 -4.7 23.6
20:35 1014 29.94 843 24.89 3.2 37.8 55 -4.9 23.1
20:40 1014 29.94 843 24.89 3.3 38 52 -5.6 21.9
20:45 1014 29.94 843 24.89 3.4 38.1 49 -6.2 20.9
20:50 1014 29.94 843 24.89 3.5 38.3 50 -5.8 21.5
20:55 1014 29.94 843 24.89 3.4 38.1 51 -5.8 21.6
21:00 1014 29.94 843 24.89 3.4 38.1 52 -5.5 22.1
21:05 1014 29.94 843 24.89 3.3 38 53 -5.3 22.5
21:10 1014 29.94 843 24.89 3.2 37.8 55 -4.9 23.2
21:15 1014 29.94 843 24.89 3.1 37.6 55 -4.9 23.1
21:20 1014 29.94 843 24.89 3 37.5 58 -4.4 24.1
21:25 1014 29.94 843 24.89 3 37.3 58 -4.5 23.8
21:30 1014 29.94 843 24.89 2.9 37.2 57 -4.7 23.5
21:35 1014 29.94 843 24.89 2.8 37.1 56 -5 23.1
21:40 1014 29.94 843 24.89 2.8 37 58 -4.6 23.6
21:45 1014 29.94 843 24.89 2.7 36.9 59 -4.4 24.1
21:50 1014 29.94 843 24.89 2.5 36.5 64 -3.7 25.4
21:55 1014 29.94 844 24.92 2.1 35.7 68 -3.3 26.1
22:00 1014 29.94 844 24.92 1.8 35.3 70 -3.1 26.3
22:05 1014 29.94 844 24.92 1.7 35 71 -3 26.5
22:10 1014 29.94 844 24.92 1.5 34.7 71 -3.3 26.1
22:15 1014 29.94 844 24.92 1.5 34.6 71 -3.2 26.2
22:20 1014 29.94 844 24.92 1.4 34.5 72 -3.1 26.4
22:25 1015 29.97 844 24.92 1.4 34.5 71 -3.4 25.9
22:30 1015 29.97 844 24.92 1.3 34.3 75 -2.6 27.3
22:35 1015 29.97 844 24.92 0.8 33.5 80 -2.3 27.9
22:40 1015 29.97 844 24.92 0.6 33.2 79 -2.6 27.3
22:45 1015 29.97 844 24.92 0.7 33.3 77 -2.9 26.8
22:50 1015 29.97 844 24.92 0.9 33.6 76 -2.8 26.9
22:55 1015 29.97 844 24.92 1 33.8 74 -3.1 26.4
23:00 1015 29.97 844 24.92 1.2 34.2 72 -3.3 26.1
23:05 1015 29.97 844 24.92 1.5 34.6 71 -3.2 26.2
23:10 1015 29.97 844 24.92 1.4 34.5 74 -2.8 26.9
23:15 1015 29.97 844 24.92 1.3 34.3 76 -2.4 27.6
23:20 1015 29.97 844 24.92 0.8 33.5 81 -2 28.3
23:25 1015 29.97 844 24.92 0.4 32.7 83 -2.2 28.1
23:30 1015 29.97 844 24.92 0.2 32.4 85 -2.1 28.3
23:35 1015 29.97 844 24.92 0.1 32.2 86 -2 28.4
23:40 1015 29.97 844 24.92 0 32.1 87 -1.9 28.5
23:45 1015 29.97 844 24.92 0 32.1 86 -2 28.5
23:50 1015 29.97 844 24.92 0 32 87 -1.9 28.6
23:55 1015 29.97 844 24.92 0.1 32.2 87 -1.9 28.7
24:00 1015 29.97 844 24.92 0.2 32.4 85 -2 28.5